createdAt,value
2019-01-17T00:02:32.122Z,98.30
2019-01-17T00:05:22.932Z,98.20
2019-01-17T00:08:01.849Z,98.20
2019-01-17T00:10:45.693Z,98.20
2019-01-17T00:13:17.991Z,98.30
2019-01-17T00:16:02.276Z,98.30
2019-01-17T00:18:51.173Z,98.20
2019-01-17T00:21:29.894Z,98.20
2019-01-17T00:24:05.215Z,98.30
2019-01-17T00:26:37.188Z,98.10
2019-01-17T00:29:09.470Z,98.10
2019-01-17T00:31:41.839Z,98.10
2019-01-17T00:34:30.391Z,98.10
2019-01-17T00:37:09.111Z,98.10
2019-01-17T00:39:50.907Z,98.20
2019-01-17T00:42:32.197Z,98.10
2019-01-17T00:45:07.327Z,98.20
2019-01-17T00:47:45.839Z,98.10
2019-01-17T00:50:28.456Z,98.20
2019-01-17T00:53:17.413Z,98.20
2019-01-17T00:55:49.583Z,98.10
2019-01-17T00:58:21.950Z,98.10
2019-01-17T01:01:03.131Z,98.00
2019-01-17T01:03:51.683Z,98.00
2019-01-17T01:06:38.895Z,98.00
2019-01-17T01:09:23.331Z,98.10
2019-01-17T01:12:01.453Z,98.10
2019-01-17T01:14:46.107Z,97.90
2019-01-17T01:17:18.600Z,98.00
2019-01-17T01:20:00.016Z,98.00
2019-01-17T01:22:35.239Z,98.00
2019-01-17T01:25:10.051Z,98.00
2019-01-17T01:27:58.604Z,98.00
2019-01-17T01:30:46.947Z,98.00
2019-01-17T01:33:19.183Z,98.00
2019-01-17T01:36:07.668Z,98.10
2019-01-17T01:38:41.065Z,98.10
2019-01-17T01:41:25.927Z,98.00
2019-01-17T01:44:16.321Z,98.00
2019-01-17T01:46:48.722Z,97.90
2019-01-17T01:49:21.066Z,97.80
2019-01-17T01:52:09.616Z,97.80
2019-01-17T01:54:40.283Z,97.80
2019-01-17T01:57:11.034Z,97.80
2019-01-17T01:59:41.955Z,97.60
2019-01-17T02:02:12.526Z,97.80
2019-01-17T02:04:42.907Z,97.60
2019-01-17T02:07:13.811Z,97.80
2019-01-17T02:09:44.484Z,97.60
2019-01-17T02:12:14.920Z,97.60
2019-01-17T02:14:45.755Z,97.30
2019-01-17T02:17:16.666Z,97.50
2019-01-17T02:19:47.222Z,97.50
2019-01-17T02:22:17.778Z,97.30
2019-01-17T02:24:48.816Z,97.40
2019-01-17T02:27:19.358Z,97.30
2019-01-17T02:29:49.946Z,97.50
2019-01-17T02:32:20.424Z,97.30
2019-01-17T02:34:50.906Z,97.30
2019-01-17T02:37:21.933Z,97.30
2019-01-17T02:39:52.621Z,97.40
2019-01-17T02:42:23.676Z,97.20
2019-01-17T02:44:54.453Z,97.30
2019-01-17T02:47:25.226Z,97.30
2019-01-17T02:49:56.224Z,97.30
2019-01-17T02:52:26.923Z,97.40
2019-01-17T02:54:57.417Z,97.40
2019-01-17T02:57:28.461Z,97.50
2019-01-17T02:59:58.902Z,97.40
2019-01-17T03:02:29.601Z,97.50
2019-01-17T03:05:00.250Z,97.50
2019-01-17T03:07:30.837Z,97.90
2019-01-17T03:10:01.368Z,97.70
2019-01-17T03:12:32.141Z,97.70
2019-01-17T03:15:02.736Z,97.70
2019-01-17T03:17:33.210Z,97.60
2019-01-17T03:20:04.293Z,97.50
2019-01-17T03:22:35.341Z,97.50
2019-01-17T03:25:08.097Z,97.40
2019-01-17T03:27:38.904Z,97.50
2019-01-17T03:30:15.565Z,97.50
2019-01-17T03:32:46.078Z,97.50
2019-01-17T03:35:16.779Z,97.50
2019-01-17T03:37:47.306Z,97.50
2019-01-17T03:40:18.275Z,97.40
2019-01-17T03:42:48.869Z,97.40
2019-01-17T03:45:19.309Z,97.20
2019-01-17T03:47:50.259Z,97.50
2019-01-17T03:50:21.061Z,97.50
2019-01-17T03:52:51.773Z,97.50
2019-01-17T03:55:23.553Z,97.50
2019-01-17T03:57:53.854Z,97.60
2019-01-17T04:00:24.472Z,97.50
2019-01-17T04:02:55.223Z,97.60
2019-01-17T04:05:25.927Z,97.60
2019-01-17T04:07:56.948Z,97.50
2019-01-17T04:10:27.990Z,97.60
2019-01-17T04:12:58.513Z,97.50
2019-01-17T04:15:29.118Z,97.40
2019-01-17T04:18:00.092Z,97.50
2019-01-17T04:20:30.875Z,97.50
2019-01-17T04:23:01.255Z,97.50
2019-01-17T04:25:31.845Z,97.60
2019-01-17T04:28:02.271Z,97.60
2019-01-17T04:30:33.003Z,97.50
2019-01-17T04:33:03.704Z,97.50
2019-01-17T04:35:34.133Z,97.60
2019-01-17T04:38:04.782Z,97.60
2019-01-17T04:40:35.664Z,97.50
2019-01-17T04:43:06.397Z,97.60
2019-01-17T04:45:36.835Z,97.40
2019-01-17T04:48:07.405Z,97.40
2019-01-17T04:50:38.300Z,97.40
2019-01-17T04:53:08.977Z,97.40
2019-01-17T04:55:39.448Z,97.50
2019-01-17T04:58:10.030Z,97.40
2019-01-17T05:00:40.547Z,97.40
2019-01-17T05:03:11.199Z,97.40
2019-01-17T05:05:41.788Z,97.50
2019-01-17T05:08:12.922Z,97.50
2019-01-17T05:10:43.654Z,97.50
2019-01-17T05:13:14.236Z,97.50
2019-01-17T05:15:44.340Z,97.50
2019-01-17T05:18:14.720Z,97.60
2019-01-17T05:20:45.297Z,97.50
2019-01-17T05:23:15.975Z,97.40
2019-01-17T05:25:46.779Z,97.50
2019-01-17T05:28:17.302Z,97.40
2019-01-17T05:30:47.918Z,97.50
2019-01-17T05:33:18.410Z,97.50
2019-01-17T05:35:48.981Z,97.60
2019-01-17T05:38:19.465Z,97.70
2019-01-17T05:40:50.240Z,97.70
2019-01-17T05:43:20.618Z,97.70
2019-01-17T05:45:53.856Z,97.70
2019-01-17T05:48:24.855Z,97.70
2019-01-17T05:50:55.416Z,97.70
2019-01-17T05:53:25.808Z,97.80
2019-01-17T05:55:56.380Z,97.70
2019-01-17T05:58:27.235Z,97.70
2019-01-17T06:00:57.981Z,97.70
2019-01-17T06:03:28.714Z,97.70
2019-01-17T06:05:59.185Z,97.60
2019-01-17T06:08:30.006Z,97.60
2019-01-17T06:11:00.802Z,97.60
2019-01-17T06:13:31.392Z,97.40
2019-01-17T06:16:02.928Z,97.40
2019-01-17T06:18:34.056Z,97.40
2019-01-17T06:21:04.746Z,97.50
2019-01-17T06:23:35.442Z,97.30
2019-01-17T06:26:06.221Z,97.30
2019-01-17T06:28:36.829Z,97.50
2019-01-17T06:31:07.497Z,97.50
2019-01-17T06:33:38.337Z,97.60
2019-01-17T06:36:08.947Z,97.60
2019-01-17T06:38:39.941Z,97.60
2019-01-17T06:41:10.476Z,97.60
2019-01-17T06:43:40.959Z,97.60
2019-01-17T06:46:11.544Z,97.70
2019-01-17T06:48:42.093Z,97.60
2019-01-17T06:51:12.643Z,97.60
2019-01-17T06:53:43.008Z,97.60
2019-01-17T06:56:13.792Z,97.50
2019-01-17T06:58:44.282Z,97.50
2019-01-17T07:01:14.845Z,97.40
2019-01-17T07:03:45.365Z,97.40
2019-01-17T07:06:16.373Z,97.30
2019-01-17T07:08:47.304Z,97.30
2019-01-17T07:11:17.931Z,97.20
2019-01-17T07:13:48.960Z,97.10
2019-01-17T07:16:19.251Z,97.30
2019-01-17T07:18:50.246Z,97.30
2019-01-17T07:21:20.881Z,97.30
2019-01-17T07:23:51.581Z,97.30
2019-01-17T07:26:22.307Z,97.20
2019-01-17T07:28:52.925Z,97.20
2019-01-17T07:31:23.596Z,97.20
2019-01-17T07:33:54.380Z,97.20
2019-01-17T07:36:24.975Z,97.20
2019-01-17T07:38:56.011Z,97.30
2019-01-17T07:41:26.624Z,97.20
2019-01-17T07:43:57.443Z,97.30
2019-01-17T07:46:28.275Z,97.30
2019-01-17T07:48:58.844Z,97.30
2019-01-17T07:51:29.367Z,97.30
2019-01-17T07:53:59.950Z,97.30
2019-01-17T07:56:30.842Z,97.40
2019-01-17T07:59:01.322Z,97.40
2019-01-17T08:01:32.096Z,97.50
2019-01-17T08:04:02.804Z,97.50
2019-01-17T08:06:33.682Z,97.60
2019-01-17T08:09:05.911Z,97.60
2019-01-17T08:11:36.496Z,97.60
2019-01-17T08:14:07.277Z,97.60
2019-01-17T08:16:37.710Z,97.70
2019-01-17T08:19:08.585Z,97.60
2019-01-17T08:21:39.318Z,97.70
2019-01-17T08:24:09.978Z,97.70
2019-01-17T08:26:40.362Z,97.80
2019-01-17T08:29:11.041Z,97.80
2019-01-17T08:31:41.498Z,97.90
2019-01-17T08:34:12.317Z,97.90
2019-01-17T08:36:43.135Z,97.80
2019-01-17T08:39:13.735Z,97.80
2019-01-17T08:41:44.192Z,97.70
2019-01-17T08:44:14.662Z,97.80
2019-01-17T08:46:45.048Z,97.80
2019-01-17T08:49:15.688Z,97.80
2019-01-17T08:51:45.952Z,97.90
2019-01-17T08:54:16.546Z,97.80
2019-01-17T08:56:46.911Z,97.70
2019-01-17T08:59:17.328Z,97.80
2019-01-17T09:01:47.902Z,97.90
2019-01-17T09:04:18.302Z,97.80
2019-01-17T09:06:48.862Z,97.70
2019-01-17T09:09:19.274Z,97.70
2019-01-17T09:11:49.722Z,97.80
2019-01-17T09:14:20.192Z,97.80
2019-01-17T09:16:50.872Z,97.90
2019-01-17T09:19:21.836Z,97.90
2019-01-17T09:21:52.556Z,98.00
2019-01-17T09:24:23.447Z,97.80
2019-01-17T09:26:54.115Z,98.00
2019-01-17T09:29:24.711Z,98.00
2019-01-17T09:31:58.741Z,97.90
2019-01-17T09:34:29.236Z,97.80
2019-01-17T09:36:59.914Z,98.10
2019-01-17T09:39:31.041Z,97.80
2019-01-17T09:42:01.454Z,97.70
2019-01-17T09:44:32.023Z,97.80
2019-01-17T09:47:02.517Z,97.90
2019-01-17T09:49:34.837Z,97.90
2019-01-17T09:52:05.711Z,97.90
2019-01-17T09:54:36.299Z,97.90
2019-01-17T09:57:06.779Z,97.80
2019-01-17T09:59:37.711Z,97.90
2019-01-17T10:02:08.671Z,97.70
2019-01-17T10:04:39.228Z,97.80
2019-01-17T10:07:10.318Z,97.90
2019-01-17T10:09:41.628Z,98.00
2019-01-17T10:12:12.359Z,97.80
2019-01-17T10:14:42.925Z,97.70
2019-01-17T10:17:16.529Z,97.60
2019-01-17T10:20:18.672Z,97.70
2019-01-17T10:23:06.997Z,97.70
2019-01-17T10:25:49.730Z,97.70
2019-01-17T10:28:41.072Z,97.80
2019-01-17T10:31:26.826Z,97.80
2019-01-17T10:34:08.960Z,97.80
2019-01-17T10:36:48.129Z,97.70
2019-01-17T10:39:49.835Z,97.80
2019-01-17T10:42:28.692Z,97.80
2019-01-17T10:45:07.566Z,97.80
2019-01-17T10:47:41.100Z,97.80
2019-01-17T10:50:26.045Z,97.80
2019-01-17T10:53:26.806Z,97.80
2019-01-17T10:56:00.520Z,97.80
2019-01-17T10:58:33.706Z,98.00
2019-01-17T11:01:27.981Z,98.00
2019-01-17T11:04:17.988Z,97.90
2019-01-17T11:06:54.126Z,97.90
2019-01-17T11:09:45.492Z,97.90
2019-01-17T11:12:27.856Z,97.80
2019-01-17T11:15:21.009Z,97.90
2019-01-17T11:18:09.322Z,97.80
2019-01-17T11:21:02.483Z,97.80
2019-01-17T11:23:41.410Z,97.80
2019-01-17T11:26:20.829Z,97.60
2019-01-17T11:29:06.436Z,97.40
2019-01-17T11:31:42.321Z,97.50
2019-01-17T11:34:39.832Z,97.20
2019-01-17T11:37:29.529Z,97.10
2019-01-17T11:40:05.490Z,97.10
2019-01-17T11:42:50.606Z,97.00
2019-01-17T11:45:32.958Z,96.90
2019-01-17T11:48:06.130Z,96.90
2019-01-17T11:51:08.519Z,97.10
2019-01-17T11:53:47.779Z,97.00
2019-01-17T11:56:21.457Z,96.90
2019-01-17T11:59:26.790Z,97.10
2019-01-17T12:02:10.445Z,97.20
2019-01-17T12:04:39.912Z,97.20
2019-01-17T12:07:13.201Z,97.30
2019-01-17T12:09:43.969Z,97.30
2019-01-17T12:12:16.241Z,97.30
2019-01-17T12:14:47.111Z,97.20
2019-01-17T12:17:17.691Z,97.10
2019-01-17T12:19:48.177Z,97.10
2019-01-17T12:22:18.712Z,97.00
2019-01-17T12:24:49.177Z,97.00
2019-01-17T12:27:19.579Z,97.00
2019-01-17T12:29:50.698Z,96.90
2019-01-17T12:32:21.442Z,97.00
2019-01-17T12:34:52.002Z,97.00
2019-01-17T12:37:22.387Z,96.90
2019-01-17T12:39:53.077Z,96.90
2019-01-17T12:42:23.663Z,96.90
2019-01-17T12:44:54.209Z,96.80
2019-01-17T12:47:24.977Z,96.70
2019-01-17T12:49:55.566Z,96.60
2019-01-17T12:52:26.167Z,96.50
2019-01-17T12:54:56.807Z,96.40
2019-01-17T12:57:27.319Z,96.50
2019-01-17T12:59:57.909Z,96.40
2019-01-17T13:02:28.304Z,96.50
2019-01-17T13:04:59.324Z,96.50
2019-01-17T13:07:30.329Z,96.30
2019-01-17T13:10:01.403Z,96.40
2019-01-17T13:12:31.968Z,96.40
2019-01-17T13:15:02.747Z,96.50
2019-01-17T13:17:33.816Z,96.40
2019-01-17T13:20:05.692Z,96.30
2019-01-17T13:22:36.275Z,96.50
2019-01-17T13:25:09.766Z,96.60
2019-01-17T13:27:41.116Z,96.60
2019-01-17T13:30:16.980Z,96.50
2019-01-17T13:32:47.692Z,96.60
2019-01-17T13:35:18.175Z,96.60
2019-01-17T13:37:48.371Z,96.70
2019-01-17T13:40:21.130Z,96.70
2019-01-17T13:42:52.275Z,96.80
2019-01-17T13:45:22.795Z,96.80
2019-01-17T13:47:53.227Z,96.60
2019-01-17T13:50:23.819Z,96.60
2019-01-17T13:52:54.223Z,96.60
2019-01-17T13:55:24.810Z,96.60
2019-01-17T13:57:55.385Z,96.60
2019-01-17T14:00:26.730Z,96.60
2019-01-17T14:02:57.274Z,96.50
2019-01-17T14:05:27.919Z,96.50
2019-01-17T14:07:58.344Z,96.50
2019-01-17T14:10:28.907Z,96.50
2019-01-17T14:12:59.644Z,96.60
2019-01-17T14:15:31.817Z,96.50
2019-01-17T14:18:02.270Z,96.60
2019-01-17T14:20:33.415Z,96.50
2019-01-17T14:23:03.938Z,96.60
2019-01-17T14:25:34.257Z,96.70
2019-01-17T14:28:05.215Z,96.60
2019-01-17T14:30:35.939Z,96.50
2019-01-17T14:33:06.645Z,96.40
2019-01-17T14:35:37.308Z,96.50
2019-01-17T14:38:08.040Z,96.60
2019-01-17T14:40:38.711Z,96.60
2019-01-17T14:43:09.180Z,96.70
2019-01-17T14:45:40.141Z,96.70
2019-01-17T14:48:10.904Z,96.80
2019-01-17T14:50:42.052Z,96.70
2019-01-17T14:53:13.055Z,96.80
2019-01-17T14:55:43.627Z,96.80
2019-01-17T14:58:14.627Z,96.80
2019-01-17T15:00:45.557Z,96.80
2019-01-17T15:03:16.147Z,96.70
2019-01-17T15:05:46.643Z,96.70
2019-01-17T15:08:17.197Z,96.70
2019-01-17T15:10:47.677Z,96.80
2019-01-17T15:13:18.335Z,96.80
2019-01-17T15:15:49.217Z,96.80
2019-01-17T15:18:19.828Z,96.80
2019-01-17T15:20:50.499Z,97.10
2019-01-17T15:23:21.127Z,96.90
2019-01-17T15:25:51.871Z,96.80
2019-01-17T15:28:22.760Z,96.80
2019-01-17T15:30:53.306Z,96.80
2019-01-17T15:33:24.211Z,96.70
2019-01-17T15:35:55.226Z,96.70
2019-01-17T15:38:25.766Z,96.70
2019-01-17T15:40:56.689Z,96.70
2019-01-17T15:43:27.325Z,96.70
2019-01-17T15:45:57.971Z,96.70
2019-01-17T15:48:28.635Z,96.60
2019-01-17T15:50:59.483Z,96.70
2019-01-17T15:53:30.626Z,96.70
2019-01-17T15:56:01.419Z,96.60
2019-01-17T15:58:31.980Z,96.70
2019-01-17T16:01:02.965Z,96.60
2019-01-17T16:03:34.005Z,96.60
2019-01-17T16:06:04.761Z,96.60
2019-01-17T16:08:35.364Z,96.70
2019-01-17T16:11:05.767Z,96.60
2019-01-17T16:13:36.098Z,96.60
2019-01-17T16:16:06.827Z,96.60
2019-01-17T16:18:37.233Z,96.50
2019-01-17T16:21:08.220Z,96.40
2019-01-17T16:23:39.573Z,96.60
2019-01-17T16:26:10.548Z,96.50
2019-01-17T16:28:41.648Z,96.60
2019-01-17T16:31:12.253Z,96.60
2019-01-17T16:33:44.206Z,96.60
2019-01-17T16:36:14.938Z,96.60
2019-01-17T16:38:45.818Z,96.60
2019-01-17T16:41:16.474Z,96.40
2019-01-17T16:43:47.485Z,96.30
2019-01-17T16:46:18.239Z,96.10
2019-01-17T16:48:49.152Z,96.00
2019-01-17T16:51:19.798Z,96.20
2019-01-17T16:53:50.827Z,95.90
2019-01-17T16:56:21.770Z,95.80
2019-01-17T16:58:53.765Z,95.80
2019-01-17T17:01:24.553Z,95.70
2019-01-17T17:03:55.348Z,95.70
2019-01-17T17:06:25.984Z,95.60
2019-01-17T17:08:56.162Z,95.70
2019-01-17T17:11:26.913Z,95.50
2019-01-17T17:13:57.542Z,95.50
2019-01-17T17:16:28.448Z,95.50
2019-01-17T17:18:59.039Z,95.40
2019-01-17T17:21:29.558Z,95.20
2019-01-17T17:23:59.960Z,95.40
2019-01-17T17:26:30.577Z,95.70
2019-01-17T17:29:01.163Z,95.20
2019-01-17T17:31:31.687Z,95.20
2019-01-17T17:34:02.795Z,95.20
2019-01-17T17:36:33.526Z,95.20
2019-01-17T17:39:05.469Z,94.90
2019-01-17T17:41:35.972Z,95.00
2019-01-17T17:44:06.437Z,95.00
2019-01-17T17:46:37.029Z,94.90
2019-01-17T17:49:07.940Z,95.10
2019-01-17T17:51:40.838Z,95.00
2019-01-17T17:54:11.670Z,95.00
2019-01-17T17:56:42.166Z,94.90
2019-01-17T17:59:12.922Z,94.70
2019-01-17T18:01:44.227Z,95.20
2019-01-17T18:04:15.127Z,94.90
2019-01-17T18:06:47.104Z,94.80
2019-01-17T18:09:17.924Z,94.80
2019-01-17T18:11:48.420Z,94.70
2019-01-17T18:14:18.950Z,94.70
2019-01-17T18:16:51.978Z,94.60
2019-01-17T18:19:24.182Z,94.60
2019-01-17T18:21:57.194Z,94.70
2019-01-17T18:24:27.726Z,94.80
2019-01-17T18:26:58.296Z,94.60
2019-01-17T18:29:28.848Z,94.60
2019-01-17T18:31:59.480Z,94.50
2019-01-17T18:34:30.620Z,94.40
2019-01-17T18:37:01.161Z,94.50
2019-01-17T18:39:32.091Z,94.50
2019-01-17T18:42:02.835Z,94.40
2019-01-17T18:44:33.507Z,94.60
2019-01-17T18:47:04.555Z,94.70
2019-01-17T18:49:35.242Z,94.60
2019-01-17T18:52:05.727Z,94.50
2019-01-17T18:54:36.615Z,94.50
2019-01-17T18:57:07.293Z,94.60
2019-01-17T18:59:37.948Z,94.50
2019-01-17T19:02:08.545Z,94.70
2019-01-17T19:04:39.227Z,94.60
2019-01-17T19:07:10.318Z,94.60
2019-01-17T19:09:42.160Z,94.40
2019-01-17T19:12:14.350Z,94.50
2019-01-17T19:14:45.441Z,94.50
2019-01-17T19:17:18.827Z,94.50
2019-01-17T19:19:54.887Z,94.40
2019-01-17T19:22:26.282Z,94.30
2019-01-17T19:25:00.251Z,95.10
2019-01-17T19:27:31.730Z,95.30
2019-01-17T19:30:03.746Z,95.50
2019-01-17T19:32:34.729Z,95.90
2019-01-17T19:35:07.806Z,96.20
2019-01-17T19:37:38.426Z,96.40
2019-01-17T19:40:26.719Z,96.40
2019-01-17T19:42:57.508Z,96.40
2019-01-17T19:45:28.304Z,96.60
2019-01-17T19:47:58.782Z,96.50
2019-01-17T19:50:32.043Z,96.60
2019-01-17T19:53:03.404Z,96.60
2019-01-17T19:55:37.065Z,96.50
2019-01-17T19:58:07.851Z,96.60
2019-01-17T20:00:38.588Z,96.50
2019-01-17T20:03:09.536Z,96.50
2019-01-17T20:05:40.852Z,96.60
2019-01-17T20:08:11.497Z,96.80
2019-01-17T20:10:41.972Z,96.80
2019-01-17T20:13:12.964Z,96.60
2019-01-17T20:15:44.055Z,96.70
2019-01-17T20:18:14.662Z,96.80
2019-01-17T20:20:45.170Z,96.70
2019-01-17T20:23:17.490Z,96.50
2019-01-17T20:25:48.810Z,96.60
2019-01-17T20:28:19.578Z,96.70
2019-01-17T20:30:50.650Z,96.60
2019-01-17T20:33:21.311Z,96.70
2019-01-17T20:35:52.632Z,96.70
2019-01-17T20:38:23.214Z,96.90
2019-01-17T20:40:58.201Z,96.60
2019-01-17T20:43:25.923Z,96.60
2019-01-17T20:45:56.410Z,96.50
2019-01-17T20:48:27.108Z,96.70
2019-01-17T20:50:57.800Z,96.60
2019-01-17T20:53:28.705Z,96.60
2019-01-17T20:55:59.825Z,96.50
2019-01-17T20:58:30.405Z,96.50
2019-01-17T21:01:21.970Z,96.50
2019-01-17T21:03:52.246Z,96.40
2019-01-17T21:06:23.241Z,96.40
2019-01-17T21:08:53.857Z,96.40
2019-01-17T21:11:24.384Z,96.30
2019-01-17T21:13:54.858Z,96.10
2019-01-17T21:16:25.576Z,96.20
2019-01-17T21:18:56.498Z,96.20
2019-01-17T21:21:27.443Z,96.20
2019-01-17T21:23:58.191Z,96.10
2019-01-17T21:26:29.333Z,96.00
2019-01-17T21:29:01.145Z,96.00
2019-01-17T21:31:31.789Z,96.10
2019-01-17T21:34:02.516Z,96.00
2019-01-17T21:36:34.730Z,96.00
2019-01-17T21:39:07.484Z,96.00
2019-01-17T21:41:38.031Z,95.90
2019-01-17T21:44:10.183Z,95.90
2019-01-17T21:46:40.771Z,95.80
2019-01-17T21:49:11.487Z,95.90
2019-01-17T21:51:42.439Z,95.90
2019-01-17T21:54:12.995Z,96.00
2019-01-17T21:56:45.234Z,95.90
2019-01-17T21:59:17.257Z,96.10
2019-01-17T22:01:47.925Z,95.80
2019-01-17T22:04:19.529Z,95.80
2019-01-17T22:06:49.961Z,95.90
2019-01-17T22:09:22.507Z,95.70
2019-01-17T22:11:53.382Z,95.70
2019-01-17T22:14:24.021Z,95.70
2019-01-17T22:16:56.257Z,95.80
2019-01-17T22:19:27.038Z,95.70
2019-01-17T22:21:57.798Z,95.70
2019-01-17T22:24:28.422Z,95.70
2019-01-17T22:26:59.387Z,95.70
2019-01-17T22:29:29.958Z,95.60
2019-01-17T22:32:00.576Z,95.70
2019-01-17T22:34:32.212Z,95.60
2019-01-17T22:37:03.278Z,95.60
2019-01-17T22:39:34.031Z,95.60
2019-01-17T22:42:09.498Z,95.50
2019-01-17T22:44:40.805Z,95.50
2019-01-17T22:47:11.915Z,95.50
2019-01-17T22:49:42.505Z,95.50
2019-01-17T22:52:13.751Z,95.50
2019-01-17T22:54:46.887Z,95.40
2019-01-17T22:57:18.930Z,95.50
2019-01-17T22:59:49.815Z,95.50
2019-01-17T23:02:20.561Z,95.40
2019-01-17T23:04:51.064Z,95.50
2019-01-17T23:07:21.639Z,95.60
2019-01-17T23:09:52.265Z,95.60
2019-01-17T23:12:23.272Z,95.70
2019-01-17T23:14:54.206Z,95.50
2019-01-17T23:17:25.046Z,95.60
2019-01-17T23:19:55.725Z,95.50
2019-01-17T23:22:26.820Z,95.60
2019-01-17T23:24:57.448Z,95.60
2019-01-17T23:27:28.080Z,95.60
2019-01-17T23:29:58.661Z,95.50
2019-01-17T23:32:29.050Z,95.50
2019-01-17T23:35:00.167Z,95.50
2019-01-17T23:37:31.216Z,95.50
2019-01-17T23:40:02.179Z,95.50
2019-01-17T23:42:32.912Z,95.50
2019-01-17T23:45:03.742Z,95.50
2019-01-17T23:47:34.310Z,95.50
2019-01-17T23:50:07.225Z,95.50
2019-01-17T23:52:38.841Z,95.40
2019-01-17T23:55:10.037Z,95.50
2019-01-17T23:57:40.724Z,95.40
